Time;durP1;ratioP1;P1;durP2;ratioP2;P2;SDS_P1;SDS_P2;PMS_P1;PMS_P2;Temp;Humidity;BMP_temperature;BMP_pressure;BME280_temperature;BME280_humidity;BME280_pressure;Samples;Min_cycle;Max_cycle;Signal;HPM_P1;HPM_P2
2022/05/21 00:00:31;;;;;;;;;;;;;;;18.73;50.52;101062.25;4155071;28;20299;-68
2022/05/21 00:02:35;;;;;;;;;;;;;;;18.74;50.72;101069.28;4218003;28;19927;-68
2022/05/21 00:04:41;;;;;;;;;;;;;;;18.58;50.52;101065.03;4159825;28;19960;-69
2022/05/21 00:06:44;;;;;;;;;;;;;;;18.37;51.15;101068.72;4217351;28;19956;-69
2022/05/21 00:08:47;;;;;;;;;;;;;;;18.27;51.35;101074.06;4197295;27;19920;-69
2022/05/21 00:10:49;;;;;;;;;;;;;;;18.20;51.76;101067.09;4218871;28;19926;-69
2022/05/21 00:12:52;;;;;;;;;;;;;;;18.30;51.53;101067.91;4149030;28;19921;-69
2022/05/21 00:14:55;;;;;;;;;;;;;;;18.28;51.67;101064.41;4158387;28;19925;-69
2022/05/21 00:16:57;;;;;;;;;;;;;;;18.32;51.77;101066.13;4155937;28;19942;-69
2022/05/21 00:19:02;;;;;;;;;;;;;;;18.38;51.71;101070.47;4223588;28;20022;-69
2022/05/21 00:21:05;;;;;;;;;;;;;;;18.34;51.88;101071.38;4206965;28;19921;-69
2022/05/21 00:23:10;;;;;;;;;;;;;;;18.31;52.06;101078.44;4190989;28;19921;-69
2022/05/21 00:25:13;;;;;;;;;;;;;;;18.22;52.10;101080.25;4178748;28;19929;-68
2022/05/21 00:27:16;;;;;;;;;;;;;;;18.23;52.65;101082.00;4224352;28;19919;-69
2022/05/21 00:29:20;;;;;;;;;;;;;;;18.28;52.28;101075.81;4222495;28;19956;-69
2022/05/21 00:31:23;;;;;;;;;;;;;;;18.28;52.15;101082.81;4176238;28;19927;-69
2022/05/21 00:33:27;;;;;;;;;;;;;;;18.34;52.25;101088.06;4222258;28;19920;-69
2022/05/21 00:35:31;;;;;;;;;;;;;;;18.28;52.60;101088.09;4196444;28;19921;-69
2022/05/21 00:37:33;;;;;;;;;;;;;;;18.24;52.58;101091.66;4160048;28;19953;-69
2022/05/21 00:39:36;;;;;;;;;;;;;;;18.22;52.25;101091.63;4153543;28;20379;-70
2022/05/21 00:41:39;;;;;;;;;;;;;;;18.36;52.11;101099.44;4155339;28;19927;-69
2022/05/21 00:43:44;;;;;;;;;;;;;;;18.72;50.68;101107.03;4156833;28;19921;-70
2022/05/21 00:45:47;;;;;;;;;;;;;;;18.60;50.66;101115.94;4199061;28;20401;-69
2022/05/21 00:47:49;;;;;;;;;;;;;;;18.81;49.34;101117.50;4228288;28;19926;-69
2022/05/21 00:49:52;;;;;;;;;;;;;;;18.54;49.88;101124.75;4161045;28;19928;-69
2022/05/21 00:51:59;;;;;;;;;;;;;;;18.59;49.51;101130.00;4163494;28;19928;-68
2022/05/21 00:54:03;;;;;;;;;;;;;;;18.33;50.12;101138.97;4160629;28;19928;-69
2022/05/21 00:56:06;;;;;;;;;;;;;;;18.21;50.04;101142.56;4228767;28;19920;-69
2022/05/21 01:00:32;;;;;;;;;;;;;;;18.10;50.41;101139.97;4200751;28;19962;-69
2022/05/21 01:02:36;;;;;;;;;;;;;;;18.20;49.83;101146.06;4160890;28;19928;-69
2022/05/21 01:04:40;;;;;;;;;;;;;;;18.13;50.07;101145.22;4187434;28;19927;-68
2022/05/21 01:06:43;;;;;;;;;;;;;;;18.10;49.98;101149.63;4160897;28;19928;-68
2022/05/21 01:08:47;;;;;;;;;;;;;;;18.05;50.32;101154.94;4152784;28;20380;-69
2022/05/21 01:10:51;;;;;;;;;;;;;;;18.34;49.22;101148.63;4152279;28;20364;-68
2022/05/21 01:12:56;;;;;;;;;;;;;;;18.14;49.86;101152.22;4151040;28;19921;-68
2022/05/21 01:15:01;;;;;;;;;;;;;;;17.85;50.39;101144.47;4154762;28;19921;-68
2022/05/21 01:17:04;;;;;;;;;;;;;;;17.83;50.66;101147.97;4226616;28;19972;-68
2022/05/21 01:19:08;;;;;;;;;;;;;;;17.95;50.00;101147.97;4181945;28;20406;-69
2022/05/21 01:21:10;;;;;;;;;;;;;;;17.97;50.06;101148.81;4154447;28;19921;-68
2022/05/21 01:23:15;;;;;;;;;;;;;;;17.70;51.09;101142.78;4155654;28;19921;-69
2022/05/21 01:25:19;;;;;;;;;;;;;;;17.62;51.37;101144.56;4186978;28;20379;-68
2022/05/21 01:27:22;;;;;;;;;;;;;;;17.72;50.92;101145.41;4218634;28;19942;-69
2022/05/21 01:29:28;;;;;;;;;;;;;;;17.67;50.98;101145.44;4201662;28;19955;-69
2022/05/21 01:31:32;;;;;;;;;;;;;;;17.66;51.33;101143.69;4161641;28;19925;-69
2022/05/21 01:33:36;;;;;;;;;;;;;;;17.60;51.50;101147.19;4148953;28;19921;-69
2022/05/21 01:35:40;;;;;;;;;;;;;;;17.75;50.95;101146.25;4158684;28;20342;-68
2022/05/21 01:37:42;;;;;;;;;;;;;;;17.90;50.45;101149.72;4153051;28;20383;-69
2022/05/21 01:39:46;;;;;;;;;;;;;;;17.93;50.25;101153.22;4216360;28;19927;-69
2022/05/21 01:41:50;;;;;;;;;;;;;;;17.66;51.05;101154.19;4208972;28;19935;-69
2022/05/21 01:46:14;;;;;;;;;;;;;;;17.68;51.08;101160.31;4158389;28;19921;-69
2022/05/21 01:48:19;;;;;;;;;;;;;;;17.56;51.59;101166.50;4151569;28;19924;-69
2022/05/21 01:50:21;;;;;;;;;;;;;;;17.58;51.53;101167.38;4188094;28;19920;-69
2022/05/21 01:52:25;;;;;;;;;;;;;;;17.48;51.65;101170.03;4223442;28;20001;-69
2022/05/21 01:54:27;;;;;;;;;;;;;;;17.40;52.34;101173.53;4154160;28;20047;-69
2022/05/21 01:56:32;;;;;;;;;;;;;;;17.42;52.13;101171.81;4159197;28;20008;-68
2022/05/21 01:58:35;;;;;;;;;;;;;;;17.53;52.04;101173.53;4221945;28;19919;-69
2022/05/21 02:00:38;;;;;;;;;;;;;;;17.55;52.16;101187.53;4160880;28;19982;-68
2022/05/21 02:02:40;;;;;;;;;;;;;;;17.55;52.17;101182.28;4158264;28;20031;-68
2022/05/21 02:04:43;;;;;;;;;;;;;;;17.53;51.95;101184.03;4210371;28;19936;-69
2022/05/21 02:06:46;;;;;;;;;;;;;;;17.43;52.53;101189.34;4211936;28;20541;-69
2022/05/21 02:08:49;;;;;;;;;;;;;;;17.40;52.84;101185.81;4197851;28;19921;-68
2022/05/21 02:10:52;;;;;;;;;;;;;;;17.38;52.88;101190.22;4157861;28;19925;-68
2022/05/21 02:13:02;;;;;;;;;;;;;;;17.32;53.11;101184.94;4162152;28;19921;-69
2022/05/21 02:15:05;;;;;;;;;;;;;;;17.23;53.08;101184.13;4162422;28;20019;-68
2022/05/21 02:17:08;;;;;;;;;;;;;;;17.16;53.45;101190.25;4145871;28;19922;-69
2022/05/21 02:19:10;;;;;;;;;;;;;;;17.16;53.39;101192.00;4150665;28;20403;-68
2022/05/21 02:21:13;;;;;;;;;;;;;;;17.20;53.44;101188.47;4161104;28;19932;-68
2022/05/21 02:23:16;;;;;;;;;;;;;;;17.13;53.24;101181.47;4157293;28;20011;-68
2022/05/21 02:25:20;;;;;;;;;;;;;;;17.05;53.47;101185.00;4154691;28;19921;-68
2022/05/21 02:27:23;;;;;;;;;;;;;;;17.04;53.40;101196.41;4146004;28;19925;-68
2022/05/21 02:29:28;;;;;;;;;;;;;;;17.07;53.16;101191.13;4173983;28;19928;-68
2022/05/21 02:31:31;;;;;;;;;;;;;;;16.90;53.58;101191.13;4157936;28;19921;-68
2022/05/21 02:33:33;;;;;;;;;;;;;;;16.88;53.66;101198.16;4160164;28;20387;-68
2022/05/21 02:35:36;;;;;;;;;;;;;;;16.96;53.44;101192.88;4151692;28;20016;-68
2022/05/21 02:39:59;;;;;;;;;;;;;;;16.91;53.41;101198.16;4158477;28;19921;-68
2022/05/21 02:42:02;;;;;;;;;;;;;;;16.80;53.60;101199.00;4158392;28;19928;-69
2022/05/21 02:44:07;;;;;;;;;;;;;;;16.72;53.70;101199.00;4158606;28;20328;-68
2022/05/21 02:46:11;;;;;;;;;;;;;;;16.62;53.98;101197.22;4156901;28;19921;-68
2022/05/21 02:48:13;;;;;;;;;;;;;;;16.58;54.17;101198.97;4226578;28;20438;-68
2022/05/21 02:50:17;;;;;;;;;;;;;;;16.63;53.83;101199.88;4160947;28;19927;-68
2022/05/21 02:52:20;;;;;;;;;;;;;;;16.67;54.25;101201.59;4154114;28;19928;-68
2022/05/21 02:54:23;;;;;;;;;;;;;;;16.61;54.06;101204.22;4157925;28;19925;-68
2022/05/21 02:56:25;;;;;;;;;;;;;;;16.54;54.62;101205.97;4151695;28;20405;-68
2022/05/21 02:58:28;;;;;;;;;;;;;;;16.55;54.25;101207.72;4193960;28;20015;-68
2022/05/21 03:00:31;;;;;;;;;;;;;;;16.52;54.28;101205.09;4181795;28;19927;-68
2022/05/21 03:02:36;;;;;;;;;;;;;;;16.52;54.72;101207.72;4218907;28;19924;-68
2022/05/21 03:04:39;;;;;;;;;;;;;;;16.38;54.33;101212.94;4153469;28;19960;-68
2022/05/21 03:06:42;;;;;;;;;;;;;;;16.37;54.91;101205.94;4155991;28;20372;-68
2022/05/21 03:11:05;;;;;;;;;;;;;;;16.25;54.32;101207.66;4156800;28;19925;-68
2022/05/21 03:13:07;;;;;;;;;;;;;;;16.30;53.87;101209.41;4158146;28;19921;-68
2022/05/21 03:15:10;;;;;;;;;;;;;;;16.31;53.73;101210.28;4155207;28;19966;-68
2022/05/21 03:17:13;;;;;;;;;;;;;;;16.31;53.73;101208.56;4159334;28;20016;-67
2022/05/21 03:19:17;;;;;;;;;;;;;;;16.18;53.85;101212.88;4193254;28;19925;-67
2022/05/21 03:21:19;;;;;;;;;;;;;;;16.18;53.88;101206.78;4160482;28;20329;-67
2022/05/21 03:23:22;;;;;;;;;;;;;;;16.17;54.19;101210.25;4156995;28;19960;-68
2022/05/21 03:25:25;;;;;;;;;;;;;;;16.21;53.36;101210.25;4152519;28;20019;-67
2022/05/21 03:27:28;;;;;;;;;;;;;;;16.23;53.28;101216.38;4155924;28;20841;-68
2022/05/21 03:29:30;;;;;;;;;;;;;;;16.31;53.29;101219.03;4158003;28;19929;-68
2022/05/21 03:31:33;;;;;;;;;;;;;;;16.27;53.33;101222.53;4160498;28;20020;-67
2022/05/21 03:33:36;;;;;;;;;;;;;;;16.28;53.19;101219.03;4159596;28;19921;-67
2022/05/21 03:35:41;;;;;;;;;;;;;;;16.35;53.22;101215.56;4155394;28;19921;-68
2022/05/21 03:37:44;;;;;;;;;;;;;;;16.33;53.57;101217.28;4152535;28;20375;-68
2022/05/21 03:39:47;;;;;;;;;;;;;;;16.34;53.57;101218.16;4186709;28;19950;-68
2022/05/21 03:41:49;;;;;;;;;;;;;;;16.38;53.76;101219.91;4217943;28;19920;-68
2022/05/21 03:43:54;;;;;;;;;;;;;;;16.39;54.41;101219.91;4159835;28;19940;-68
2022/05/21 03:45:56;;;;;;;;;;;;;;;16.33;54.99;101221.69;4155090;28;19921;-68
2022/05/21 03:47:59;;;;;;;;;;;;;;;16.31;55.38;101223.41;4195962;28;20008;-68
2022/05/21 03:50:02;;;;;;;;;;;;;;;16.31;55.36;101223.41;4162466;28;19974;-68
2022/05/21 03:52:07;;;;;;;;;;;;;;;16.21;55.75;101227.75;4161142;28;19929;-68
2022/05/21 03:54:10;;;;;;;;;;;;;;;16.17;56.05;101223.38;4162763;28;19924;-68
2022/05/21 03:56:12;;;;;;;;;;;;;;;16.14;56.36;101226.84;4155181;28;19928;-68
2022/05/21 03:58:16;;;;;;;;;;;;;;;16.08;56.74;101236.44;4149711;28;19921;-68
2022/05/21 04:00:19;;;;;;;;;;;;;;;16.07;56.96;101229.47;4161010;28;20027;-67
2022/05/21 04:02:22;;;;;;;;;;;;;;;15.98;57.33;101233.78;4213851;28;19924;-67
2022/05/21 04:04:25;;;;;;;;;;;;;;;15.95;57.35;101236.41;4200721;28;19930;-67
2022/05/21 04:06:27;;;;;;;;;;;;;;;15.94;57.98;101233.78;4180754;28;19920;-67
2022/05/21 04:08:31;;;;;;;;;;;;;;;15.92;57.34;101230.28;4215255;28;19955;-67
2022/05/21 04:10:35;;;;;;;;;;;;;;;15.84;58.32;101230.22;4193212;28;19928;-67
2022/05/21 04:12:37;;;;;;;;;;;;;;;15.77;58.01;101239.78;4154241;28;20028;-68
2022/05/21 04:14:40;;;;;;;;;;;;;;;15.75;58.44;101238.00;4149664;28;20299;-68
2022/05/21 04:16:43;;;;;;;;;;;;;;;15.81;57.76;101233.72;4160935;28;19944;-68
2022/05/21 04:18:46;;;;;;;;;;;;;;;15.87;57.71;101244.22;4158617;28;19925;-68
2022/05/21 04:20:48;;;;;;;;;;;;;;;15.82;57.83;101239.84;4163588;28;19921;-69
2022/05/21 04:22:52;;;;;;;;;;;;;;;15.79;57.96;101243.31;4161758;28;19921;-69
2022/05/21 04:24:56;;;;;;;;;;;;;;;15.82;57.61;101243.31;4231500;28;19926;-68
2022/05/21 04:26:59;;;;;;;;;;;;;;;15.81;57.75;101243.31;4229250;28;19933;-68
2022/05/21 04:29:02;;;;;;;;;;;;;;;15.79;58.01;101245.06;4193724;28;19923;-68
2022/05/21 04:31:04;;;;;;;;;;;;;;;15.82;57.58;101248.56;4178847;28;19929;-68
2022/05/21 04:33:07;;;;;;;;;;;;;;;15.83;57.91;101252.94;4160673;28;20359;-68
2022/05/21 04:35:10;;;;;;;;;;;;;;;15.91;57.46;101260.84;4163896;28;19956;-68
2022/05/21 04:37:13;;;;;;;;;;;;;;;15.92;57.78;101248.63;4159256;28;19921;-68
2022/05/21 04:39:15;;;;;;;;;;;;;;;15.93;57.85;101259.13;4161431;28;19925;-67
2022/05/21 04:41:20;;;;;;;;;;;;;;;16.00;57.64;101257.38;4199751;28;19925;-68
2022/05/21 04:43:23;;;;;;;;;;;;;;;16.00;57.70;101263.53;4158080;28;19928;-68
2022/05/21 04:45:25;;;;;;;;;;;;;;;15.91;57.79;101271.34;4195615;28;20019;-68
2022/05/21 04:47:28;;;;;;;;;;;;;;;15.91;57.39;101266.09;4157141;28;19927;-68
2022/05/21 04:49:31;;;;;;;;;;;;;;;15.84;58.04;101269.53;4226782;28;19919;-68
2022/05/21 04:51:36;;;;;;;;;;;;;;;15.89;58.27;101270.47;4162695;28;20018;-68
2022/05/21 04:53:39;;;;;;;;;;;;;;;15.92;57.83;101267.84;4150156;28;19921;-68
2022/05/21 04:55:41;;;;;;;;;;;;;;;15.94;57.88;101266.09;4161706;28;19922;-68
2022/05/21 04:57:46;;;;;;;;;;;;;;;15.97;58.26;101266.13;4208879;28;19955;-68
2022/05/21 04:59:48;;;;;;;;;;;;;;;15.97;57.87;101270.50;4196199;28;19947;-67
2022/05/21 05:01:56;;;;;;;;;;;;;;;15.99;57.59;101259.16;4177973;28;20007;-68
2022/05/21 05:03:59;;;;;;;;;;;;;;;15.98;57.53;101257.38;4157897;28;19952;-68
2022/05/21 05:06:02;;;;;;;;;;;;;;;15.98;57.78;101261.78;4208696;28;19921;-68
2022/05/21 05:08:08;;;;;;;;;;;;;;;16.11;57.81;101267.94;4158368;28;19921;-68
2022/05/21 05:10:11;;;;;;;;;;;;;;;16.22;57.56;101263.59;4163096;28;20395;-68
2022/05/21 05:12:14;;;;;;;;;;;;;;;16.28;56.92;101268.91;4159954;28;19921;-68
2022/05/21 05:14:22;;;;;;;;;;;;;;;16.27;57.47;101271.50;4162731;28;19928;-68
2022/05/21 05:16:25;;;;;;;;;;;;;;;16.28;57.49;101276.75;4163115;28;20401;-67
2022/05/21 05:18:30;;;;;;;;;;;;;;;16.29;57.29;101285.50;4180113;28;19921;-68
2022/05/21 05:20:33;;;;;;;;;;;;;;;16.28;57.11;101282.00;4150514;28;19921;-68
2022/05/21 05:22:36;;;;;;;;;;;;;;;16.23;56.93;101281.09;4202117;28;19985;-68
2022/05/21 05:24:39;;;;;;;;;;;;;;;16.18;56.59;101285.47;4204138;28;19919;-68
2022/05/21 05:26:42;;;;;;;;;;;;;;;16.20;56.75;101283.72;4213628;28;20011;-68
2022/05/21 05:28:45;;;;;;;;;;;;;;;16.27;56.96;101282.88;4177804;28;20306;-68
2022/05/21 05:30:49;;;;;;;;;;;;;;;16.27;57.10;101279.38;4158264;28;20237;-68
2022/05/21 05:32:52;;;;;;;;;;;;;;;16.33;56.70;101276.78;4156666;28;20041;-68
2022/05/21 05:34:55;;;;;;;;;;;;;;;16.37;57.54;101282.03;4161241;28;19921;-68
2022/05/21 05:36:57;;;;;;;;;;;;;;;16.36;55.86;101280.28;4195659;28;20010;-68
2022/05/21 05:39:02;;;;;;;;;;;;;;;16.42;55.91;101294.31;4159080;28;20576;-68
2022/05/21 05:41:06;;;;;;;;;;;;;;;16.43;55.92;101290.78;4158814;28;20032;-68
2022/05/21 05:43:09;;;;;;;;;;;;;;;16.48;55.50;101289.94;4160075;28;19967;-68
2022/05/21 05:45:13;;;;;;;;;;;;;;;16.59;55.60;101287.34;4162589;28;20015;-68
2022/05/21 05:47:17;;;;;;;;;;;;;;;16.65;54.82;101286.50;4152993;28;20371;-68
2022/05/21 05:49:19;;;;;;;;;;;;;;;16.70;54.39;101280.34;4159949;28;19921;-68
2022/05/21 05:51:22;;;;;;;;;;;;;;;16.71;54.38;101282.13;4156210;28;20367;-68
2022/05/21 05:53:25;;;;;;;;;;;;;;;16.71;54.01;101281.25;4171080;28;19929;-68
2022/05/21 05:55:27;;;;;;;;;;;;;;;16.63;54.37;101277.72;4162452;28;19928;-68
2022/05/21 05:57:30;;;;;;;;;;;;;;;16.71;54.64;101276.00;4213544;28;20293;-67
2022/05/21 05:59:50;;;;;;;;;;;;;;;16.74;54.69;101276.88;4162166;28;19964;-68
2022/05/21 06:02:57;;;;;;;;;;;;;;;16.80;54.58;101281.25;4157132;28;19972;-68
2022/05/21 06:04:19;;;;;;;;;;;;;;;16.75;54.47;101288.28;4162192;28;19956;-69
2022/05/21 06:06:22;;;;;;;;;;;;;;;16.75;54.85;101278.63;4227820;28;19920;-68
2022/05/21 06:08:25;;;;;;;;;;;;;;;16.81;54.51;101282.16;4153453;28;19921;-68
2022/05/21 06:10:28;;;;;;;;;;;;;;;16.95;54.41;101283.06;4162438;28;20334;-68
2022/05/21 06:12:34;;;;;;;;;;;;;;;16.97;55.02;101280.44;4159831;28;19921;-68
2022/05/21 06:14:37;;;;;;;;;;;;;;;17.02;54.14;101286.59;4174885;28;20358;-68
2022/05/21 06:16:41;;;;;;;;;;;;;;;17.06;53.83;101283.09;4157706;28;19927;-69
2022/05/21 06:18:43;;;;;;;;;;;;;;;17.05;53.74;101282.19;4159325;28;20298;-67
2022/05/21 06:20:49;;;;;;;;;;;;;;;17.13;54.01;101283.94;4194544;28;19921;-67
2022/05/21 06:22:52;;;;;;;;;;;;;;;17.18;53.85;101292.72;4155475;28;19928;-66
2022/05/21 06:24:54;;;;;;;;;;;;;;;17.21;53.58;101290.97;4159905;27;20379;-67
2022/05/21 06:26:57;;;;;;;;;;;;;;;17.13;52.84;101305.88;4180411;27;20437;-67
2022/05/21 06:28:59;;;;;;;;;;;;;;;17.21;53.13;101290.09;4235964;27;19958;-67
2022/05/21 06:31:02;;;;;;;;;;;;;;;17.24;52.63;101295.34;4149932;28;20506;-67
2022/05/21 06:33:11;;;;;;;;;;;;;;;17.33;52.40;101299.72;4229934;28;19919;-67
2022/05/21 06:35:15;;;;;;;;;;;;;;;17.31;52.49;101297.09;4160426;28;19928;-67
2022/05/21 06:37:19;;;;;;;;;;;;;;;17.43;52.33;101297.13;4173735;28;20405;-67
2022/05/21 06:39:21;;;;;;;;;;;;;;;17.30;52.36;101297.97;4162649;28;19928;-67
2022/05/21 06:41:31;;;;;;;;;;;;;;;17.10;52.71;101304.09;4229710;28;19920;-67
2022/05/21 06:43:34;;;;;;;;;;;;;;;16.89;53.00;101306.69;4229801;28;20333;-67
2022/05/21 06:45:36;;;;;;;;;;;;;;;16.84;52.96;101308.44;4158839;28;19990;-67
2022/05/21 06:47:39;;;;;;;;;;;;;;;16.93;53.36;101306.69;4154257;28;19921;-59
2022/05/21 06:49:42;;;;;;;;;;;;;;;17.48;57.70;101301.47;4155051;28;20422;-61
2022/05/21 06:51:45;;;;;;;;;;;;;;;17.74;53.87;101309.31;4152815;28;19989;-58
2022/05/21 06:53:50;;;;;;;;;;;;;;;17.91;53.12;101311.97;4152140;28;20354;-60
2022/05/21 06:55:54;;;;;;;;;;;;;;;18.25;54.31;101311.84;4158409;28;20403;-58
2022/05/21 06:57:57;;;;;;;;;;;;;;;18.53;50.28;101302.06;4157906;28;20384;-59
2022/05/21 07:00:00;;;;;;;;;;;;;;;18.54;51.20;101303.81;4145860;28;19922;-59
2022/05/21 07:02:04;;;;;;;;;;;;;;;18.62;50.22;101311.69;4145381;28;19926;-59
2022/05/21 07:04:07;;;;;;;;;;;;;;;18.47;50.33;101302.97;4151167;28;20012;-59
2022/05/21 07:08:29;;;;;;;;;;;;;;;18.70;50.68;101299.34;4154157;28;19922;-67
2022/05/21 07:10:34;;;;;;;;;;;;;;;18.88;50.12;101292.22;4226059;28;19919;-62
2022/05/21 07:12:37;;;;;;;;;;;;;;;18.97;50.47;101289.56;4153222;28;19921;-64
2022/05/21 07:14:40;;;;;;;;;;;;;;;19.19;49.37;101283.22;4205219;28;19977;-61
2022/05/21 07:16:42;;;;;;;;;;;;;;;19.24;49.17;101284.94;4150960;28;20008;-60
2022/05/21 07:18:46;;;;;;;;;;;;;;;19.09;49.91;101286.81;4155294;28;19921;-60
2022/05/21 07:20:49;;;;;;;;;;;;;;;19.13;49.87;101288.53;4218410;28;19949;-59
2022/05/21 07:22:52;;;;;;;;;;;;;;;19.17;49.59;101287.63;4187677;28;20020;-59
2022/05/21 07:24:55;;;;;;;;;;;;;;;19.36;49.12;101284.81;4205466;28;19920;-61
2022/05/21 07:27:00;;;;;;;;;;;;;;;19.46;48.88;101281.19;4218110;28;20078;-61
2022/05/21 07:29:02;;;;;;;;;;;;;;;19.29;49.10;101278.75;4215621;28;19962;-62
2022/05/21 07:31:05;;;;;;;;;;;;;;;19.23;48.93;101281.44;4147620;28;19962;-63
2022/05/21 07:33:15;;;;;;;;;;;;;;;19.22;49.16;101289.34;4162781;28;20303;-64
2022/05/21 07:35:19;;;;;;;;;;;;;;;19.11;48.55;101285.03;4166306;28;20015;-60
2022/05/21 07:37:22;;;;;;;;;;;;;;;18.66;48.37;101298.50;4196360;28;19927;-65
2022/05/21 07:39:24;;;;;;;;;;;;;;;18.27;49.75;101300.44;4222002;28;20022;-62
2022/05/21 07:41:27;;;;;;;;;;;;;;;18.06;50.62;101296.13;4227180;27;20317;-62
2022/05/21 07:43:31;;;;;;;;;;;;;;;18.11;50.67;101304.00;4168893;27;19921;-63
2022/05/21 07:45:38;;;;;;;;;;;;;;;18.22;51.35;101311.84;4155724;27;19921;-63
2022/05/21 07:47:41;;;;;;;;;;;;;;;18.38;50.53;101299.50;4211704;27;20287;-62
2022/05/21 07:49:45;;;;;;;;;;;;;;;18.47;51.18;101296.81;4151547;28;19928;-62
2022/05/21 07:51:47;;;;;;;;;;;;;;;18.39;51.24;101304.75;4155947;28;19928;-60
2022/05/21 07:53:50;;;;;;;;;;;;;;;18.27;51.17;101299.56;4167909;27;20019;-60
2022/05/21 07:55:55;;;;;;;;;;;;;;;18.13;51.12;101303.09;4217854;28;19924;-59
2022/05/21 07:57:57;;;;;;;;;;;;;;;18.31;51.23;101302.19;4199823;28;19982;-59
2022/05/21 08:00:01;;;;;;;;;;;;;;;18.44;51.42;101315.28;4165229;28;19921;-59
2022/05/21 08:02:15;;;;;;;;;;;;;;;18.54;51.05;101298.53;4155098;27;19966;-59
2022/05/21 08:04:18;;;;;;;;;;;;;;;18.59;51.66;101301.19;4162304;27;19922;-59
2022/05/21 08:06:21;;;;;;;;;;;;;;;18.55;51.57;101304.69;4160890;28;19921;-59
2022/05/21 08:08:24;;;;;;;;;;;;;;;18.52;51.70;101304.72;4158943;27;20403;-58
2022/05/21 08:10:26;;;;;;;;;;;;;;;18.54;51.15;101298.53;4214126;28;20014;-59
2022/05/21 08:12:29;;;;;;;;;;;;;;;18.56;51.25;101309.06;4174909;28;19933;-58
2022/05/21 08:14:32;;;;;;;;;;;;;;;18.56;52.02;101301.16;4156025;27;19978;-59
2022/05/21 08:16:36;;;;;;;;;;;;;;;18.57;51.31;101305.56;4158036;28;19978;-61
2022/05/21 08:18:39;;;;;;;;;;;;;;;18.40;51.49;101316.16;4171065;27;19921;-60
2022/05/21 08:20:42;;;;;;;;;;;;;;;18.44;49.98;101304.75;4197656;28;19927;-60
2022/05/21 08:27:40;;;;;;;;;;;;;;;18.61;50.18;101307.28;4169113;28;19928;-60
2022/05/21 08:29:43;;;;;;;;;;;;;;;18.78;49.52;101301.94;4182008;28;20015;-60
2022/05/21 08:31:47;;;;;;;;;;;;;;;18.82;47.80;101299.28;4156176;28;19925;-60
2022/05/21 08:33:50;;;;;;;;;;;;;;;18.76;48.15;101306.31;4208674;28;19932;-60
2022/05/21 08:35:53;;;;;;;;;;;;;;;18.87;46.34;101301.91;4153405;28;19929;-60
2022/05/21 08:37:56;;;;;;;;;;;;;;;18.91;46.67;101297.47;4211711;28;20034;-61
2022/05/21 08:39:58;;;;;;;;;;;;;;;18.97;46.33;101292.19;4154085;28;20015;-61
2022/05/21 08:42:06;;;;;;;;;;;;;;;19.14;46.69;101294.66;4156973;28;19928;-59
2022/05/21 08:44:10;;;;;;;;;;;;;;;19.23;45.99;101288.44;4188470;28;19925;-59
2022/05/21 08:46:17;;;;;;;;;;;;;;;19.35;46.69;101285.72;4224091;28;19920;-58
2022/05/21 08:48:22;;;;;;;;;;;;;;;19.35;45.85;101283.94;4146497;28;19928;-58
2022/05/21 08:50:27;;;;;;;;;;;;;;;19.36;45.81;101285.72;4191762;28;19936;-59
2022/05/21 08:52:33;;;;;;;;;;;;;;;19.51;45.21;101286.47;4152224;28;19980;-58
2022/05/21 08:54:39;;;;;;;;;;;;;;;19.50;45.98;101288.19;4215059;28;19920;-59
2022/05/21 08:56:41;;;;;;;;;;;;;;;19.54;44.84;101282.00;4206208;28;19928;-59
2022/05/21 08:58:56;;;;;;;;;;;;;;;19.57;45.50;101282.91;4146420;28;19929;-59
2022/05/21 09:00:59;;;;;;;;;;;;;;;19.56;45.55;101273.22;4157007;28;20295;-59
2022/05/21 09:03:05;;;;;;;;;;;;;;;19.54;45.40;101278.50;4149059;28;19921;-59
2022/05/21 09:05:12;;;;;;;;;;;;;;;19.51;44.77;101265.34;4214388;28;20018;-59
2022/05/21 09:07:18;;;;;;;;;;;;;;;19.44;45.50;101261.91;4147062;28;19921;-58
2022/05/21 09:09:29;;;;;;;;;;;;;;;19.37;45.26;101262.84;4146275;28;19929;-59
2022/05/21 09:11:35;;;;;;;;;;;;;;;19.32;44.63;101267.31;4149828;28;19932;-59
2022/05/21 09:13:41;;;;;;;;;;;;;;;19.45;43.88;101266.28;4153576;28;20358;-58
2022/05/21 09:18:06;;;;;;;;;;;;;;;19.19;44.35;101262.13;4145512;28;19921;-58
2022/05/21 09:20:18;;;;;;;;;;;;;;;19.21;43.95;101258.59;4234329;27;19919;-59
2022/05/21 09:22:22;;;;;;;;;;;;;;;19.20;44.15;101257.72;4148420;28;20403;-58
2022/05/21 09:24:46;;;;;;;;;;;;;;;19.38;43.89;101251.41;4217717;28;19930;-59
2022/05/21 09:26:50;;;;;;;;;;;;;;;19.57;43.88;101249.47;4223816;27;20393;-58
2022/05/21 09:28:54;;;;;;;;;;;;;;;19.67;43.26;101252.88;4150943;28;20344;-58
2022/05/21 09:30:58;;;;;;;;;;;;;;;19.60;43.03;101246.78;4157799;28;19975;-58
2022/05/21 09:33:02;;;;;;;;;;;;;;;19.79;43.47;101250.13;4224364;28;19970;-58
2022/05/21 09:35:06;;;;;;;;;;;;;;;19.94;43.14;101246.44;4155163;28;20028;-59
2022/05/21 09:37:16;;;;;;;;;;;;;;;20.29;42.88;101237.19;4152861;27;19929;-59
2022/05/21 09:39:31;;;;;;;;;;;;;;;20.42;42.29;101227.34;4225046;27;19919;-59
2022/05/21 09:41:36;;;;;;;;;;;;;;;20.56;42.80;101228.00;4203491;28;19942;-59
2022/05/21 09:46:15;;;;;;;;;;;;;;;20.14;43.41;101235.63;4236367;27;19923;-58
2022/05/21 09:48:20;;;;;;;;;;;;;;;20.02;43.52;101234.03;4156862;28;19921;-58
2022/05/21 09:50:24;;;;;;;;;;;;;;;19.87;44.16;101223.66;4189523;28;19920;-59
2022/05/21 09:52:30;;;;;;;;;;;;;;;19.84;43.25;101228.97;4154975;28;19929;-58
2022/05/21 09:54:34;;;;;;;;;;;;;;;19.81;43.88;101224.59;4147325;28;20082;-59
2022/05/21 09:56:47;;;;;;;;;;;;;;;20.05;42.97;101222.56;4149002;28;19925;-59
2022/05/21 09:58:51;;;;;;;;;;;;;;;20.22;42.60;101224.97;4206678;28;19927;-59
2022/05/21 10:00:57;;;;;;;;;;;;;;;20.18;43.05;101218.88;4146695;28;19929;-59
2022/05/21 10:03:01;;;;;;;;;;;;;;;20.31;42.78;101213.41;4148487;28;20360;-58
2022/05/21 10:05:08;;;;;;;;;;;;;;;20.22;43.41;101212.66;4148495;28;20330;-59
2022/05/21 10:10:58;;;;;;;;;;;;;;;20.22;42.24;101223.22;4219467;28;20133;-59
2022/05/21 10:12:09;;;;;;;;;;;;;;;20.73;41.44;101213.69;4153704;28;19927;-58
2022/05/21 10:14:17;;;;;;;;;;;;;;;20.90;41.00;101214.28;4153930;28;19932;-59
2022/05/21 10:16:24;;;;;;;;;;;;;;;20.81;40.80;101214.44;4175476;27;19970;-59
2022/05/21 10:18:32;;;;;;;;;;;;;;;20.63;41.82;101215.56;4219024;28;20382;-58
2022/05/21 10:20:38;;;;;;;;;;;;;;;20.74;41.75;101208.38;4152194;28;19928;-58
2022/05/21 10:22:48;;;;;;;;;;;;;;;20.58;41.08;101214.78;4204826;28;19924;-58
2022/05/21 10:25:00;;;;;;;;;;;;;;;20.68;41.43;101213.75;4152266;28;19921;-59
2022/05/21 10:27:07;;;;;;;;;;;;;;;20.57;41.79;101211.28;4230173;28;19923;-59
2022/05/21 10:29:23;;;;;;;;;;;;;;;20.64;41.79;101212.03;4145284;28;20020;-58
2022/05/21 10:31:35;;;;;;;;;;;;;;;20.87;42.03;101206.41;4149652;28;19927;-59
2022/05/21 10:33:53;;;;;;;;;;;;;;;21.09;41.51;101190.19;4146056;28;20020;-59
2022/05/21 10:36:01;;;;;;;;;;;;;;;21.25;40.22;101196.06;4146403;28;19925;-58
2022/05/21 10:38:09;;;;;;;;;;;;;;;21.07;40.11;101207.84;4152499;28;19924;-59
2022/05/21 10:40:23;;;;;;;;;;;;;;;21.15;40.24;101207.72;4152422;28;19930;-58
2022/05/21 10:42:34;;;;;;;;;;;;;;;21.08;40.35;101206.94;4146055;28;19922;-58
2022/05/21 10:44:42;;;;;;;;;;;;;;;21.24;39.76;101207.53;4145938;28;19921;-58
2022/05/21 10:46:51;;;;;;;;;;;;;;;21.08;39.48;101206.94;4145786;28;19979;-59
2022/05/21 10:49:15;;;;;;;;;;;;;;;20.97;39.78;101204.50;4145643;28;19978;-59
2022/05/21 10:51:21;;;;;;;;;;;;;;;20.82;40.23;101208.28;4214095;28;19926;-59
2022/05/21 10:53:35;;;;;;;;;;;;;;;20.77;40.92;101203.97;4156491;28;20028;-59
2022/05/21 10:55:44;;;;;;;;;;;;;;;20.72;41.20;101201.38;4202095;28;19928;-59
2022/05/21 10:57:55;;;;;;;;;;;;;;;21.00;40.30;101201.78;4230867;28;20374;-59
2022/05/21 11:00:02;;;;;;;;;;;;;;;21.10;39.92;101200.72;4209751;28;20007;-59
2022/05/21 11:02:13;;;;;;;;;;;;;;;21.18;39.79;101197.94;4152585;28;19969;-59